createdAt,value
2023-04-22T00:01:52.412Z,7.35
2023-04-22T00:04:21.922Z,8.07
2023-04-22T00:06:56.998Z,10.55
2023-04-22T00:09:25.888Z,8.00
2023-04-22T00:11:59.544Z,7.93
2023-04-22T00:14:32.945Z,9.85
2023-04-22T00:17:02.357Z,8.50
2023-04-22T00:19:37.788Z,10.00
2023-04-22T00:22:06.911Z,8.98
2023-04-22T00:24:38.401Z,7.82
2023-04-22T00:27:08.574Z,8.93
2023-04-22T00:29:40.106Z,10.43
2023-04-22T00:32:13.755Z,9.90
2023-04-22T00:34:42.985Z,8.20
2023-04-22T00:37:14.220Z,8.82
2023-04-22T00:39:47.942Z,9.18
2023-04-22T00:42:22.143Z,7.20
2023-04-22T00:44:52.803Z,9.23
2023-04-22T00:47:22.082Z,8.10
2023-04-22T00:49:54.374Z,7.97
2023-04-22T00:52:26.954Z,7.30
2023-04-22T00:54:56.352Z,7.45
2023-04-22T00:57:27.935Z,9.30
2023-04-22T00:59:56.784Z,8.35
2023-04-22T01:02:28.902Z,6.57
2023-04-22T01:05:01.668Z,6.60
2023-04-22T01:07:37.027Z,8.60
2023-04-22T01:10:11.902Z,5.65
2023-04-22T01:12:43.119Z,5.05
2023-04-22T01:15:13.479Z,5.22
2023-04-22T01:17:48.405Z,6.72
2023-04-22T01:20:20.663Z,7.50
2023-04-22T01:22:51.344Z,5.20
2023-04-22T01:25:22.768Z,6.18
2023-04-22T01:27:55.954Z,5.47
2023-04-22T01:30:25.306Z,7.05
2023-04-22T01:32:57.182Z,6.32
2023-04-22T01:35:30.768Z,6.90
2023-04-22T01:38:03.473Z,6.35
2023-04-22T01:40:39.173Z,6.22
2023-04-22T01:43:11.948Z,7.30
2023-04-22T01:45:43.887Z,6.03
2023-04-22T01:48:12.812Z,6.43
2023-04-22T01:50:46.138Z,6.47
2023-04-22T01:53:18.338Z,5.68
2023-04-22T01:55:48.024Z,5.95
2023-04-22T01:58:19.271Z,7.72
2023-04-22T02:00:53.216Z,5.38
2023-04-22T02:03:28.566Z,8.32
2023-04-22T02:06:00.188Z,6.25
2023-04-22T02:08:32.956Z,6.50
2023-04-22T02:11:05.154Z,6.72
2023-04-22T02:13:38.994Z,5.63
2023-04-22T02:16:11.736Z,5.38
2023-04-22T02:18:43.466Z,5.30
2023-04-22T02:21:12.320Z,4.45
2023-04-22T02:23:46.041Z,5.95
2023-04-22T02:26:22.438Z,5.88
2023-04-22T02:28:53.564Z,9.45
2023-04-22T02:31:24.959Z,5.00
2023-04-22T02:33:57.491Z,7.45
2023-04-22T02:36:28.146Z,6.55
2023-04-22T02:39:01.048Z,8.80
2023-04-22T02:41:30.129Z,8.23
2023-04-22T02:44:05.442Z,6.35
2023-04-22T02:46:37.176Z,7.10
2023-04-22T02:49:08.912Z,6.88
2023-04-22T02:51:41.076Z,5.40
2023-04-22T02:54:12.648Z,7.25
2023-04-22T02:56:47.697Z,6.00
2023-04-22T02:59:19.619Z,9.90
2023-04-22T03:01:49.489Z,9.90
2023-04-22T03:04:39.400Z,7.65
2023-04-22T03:07:12.422Z,6.30
2023-04-22T03:09:42.087Z,6.38
2023-04-22T03:12:13.553Z,6.63
2023-04-22T03:14:44.934Z,7.63
2023-04-22T03:17:14.107Z,7.82
2023-04-22T03:19:43.325Z,8.48
2023-04-22T03:22:14.831Z,5.68
2023-04-22T03:24:46.801Z,5.68
2023-04-22T03:27:17.827Z,7.00
2023-04-22T03:29:49.313Z,7.07
2023-04-22T03:32:21.576Z,6.75
2023-04-22T03:37:37.391Z,6.38
2023-04-22T03:40:11.311Z,6.85
2023-04-22T03:42:41.478Z,6.57
2023-04-22T03:45:13.615Z,7.82
2023-04-22T03:47:47.696Z,9.70
2023-04-22T03:50:29.426Z,4.82
2023-04-22T03:53:02.541Z,5.97
2023-04-22T03:55:40.129Z,6.85
2023-04-22T03:58:11.563Z,5.30
2023-04-22T04:00:45.400Z,8.48
2023-04-22T04:03:18.252Z,7.32
2023-04-22T04:05:53.247Z,8.10
2023-04-22T04:08:27.294Z,8.82
2023-04-22T04:11:01.178Z,5.38
2023-04-22T04:13:35.470Z,8.05
2023-04-22T04:16:28.485Z,6.18
2023-04-22T04:19:04.781Z,9.68
2023-04-22T04:21:36.790Z,5.70
2023-04-22T04:24:08.081Z,7.00
2023-04-22T04:26:42.893Z,7.72
2023-04-22T04:29:19.158Z,9.40
2023-04-22T04:31:57.095Z,7.38
2023-04-22T04:36:59.510Z,11.25
2023-04-22T04:39:37.286Z,9.43
2023-04-22T04:42:10.131Z,6.93
2023-04-22T04:44:49.182Z,8.52
2023-04-22T04:47:20.683Z,7.78
2023-04-22T04:49:50.679Z,6.80
2023-04-22T04:52:21.768Z,9.27
2023-04-22T04:54:55.447Z,9.07
2023-04-22T04:57:25.315Z,6.30
2023-04-22T04:59:56.582Z,7.03
2023-04-22T05:02:27.430Z,8.00
2023-04-22T05:04:56.588Z,6.32
2023-04-22T05:07:31.464Z,10.40
2023-04-22T05:10:02.447Z,8.10
2023-04-22T05:15:06.241Z,11.30
2023-04-22T05:17:37.472Z,5.20
2023-04-22T05:23:20.086Z,9.15
2023-04-22T05:25:54.685Z,8.50
2023-04-22T05:28:30.566Z,8.23
2023-04-22T05:31:05.622Z,6.03
2023-04-22T05:33:35.395Z,8.75
2023-04-22T05:36:10.370Z,7.35
2023-04-22T05:38:39.573Z,7.78
2023-04-22T05:41:08.513Z,9.00
2023-04-22T05:43:43.155Z,7.47
2023-04-22T05:46:23.164Z,8.13
2023-04-22T05:48:57.021Z,7.65
2023-04-22T05:51:55.082Z,6.88
2023-04-22T05:54:35.011Z,7.65
2023-04-22T05:57:08.719Z,7.50
2023-04-22T05:59:40.332Z,7.95
2023-04-22T06:02:10.057Z,9.57
2023-04-22T06:04:46.889Z,6.13
2023-04-22T06:07:21.359Z,8.40
2023-04-22T06:10:02.185Z,10.70
2023-04-22T06:12:37.690Z,8.85
2023-04-22T06:15:10.286Z,5.60
2023-04-22T06:17:40.037Z,6.75
2023-04-22T06:20:13.016Z,8.23
2023-04-22T06:22:42.169Z,8.63
2023-04-22T06:25:11.574Z,9.27
2023-04-22T06:27:40.571Z,11.73
2023-04-22T06:30:12.593Z,7.45
2023-04-22T06:32:43.125Z,6.35
2023-04-22T06:35:18.369Z,6.28
2023-04-22T06:37:52.259Z,7.60
2023-04-22T06:40:25.110Z,8.32
2023-04-22T06:43:25.981Z,7.20
2023-04-22T06:46:21.324Z,9.65
2023-04-22T06:49:22.235Z,7.45
2023-04-22T06:52:27.168Z,6.97
2023-04-22T06:55:03.319Z,6.10
2023-04-22T06:57:36.090Z,6.72
2023-04-22T07:00:10.602Z,8.77
2023-04-22T07:02:44.503Z,9.15
2023-04-22T07:05:18.048Z,7.80
2023-04-22T07:07:51.475Z,7.65
2023-04-22T07:10:26.435Z,8.02
2023-04-22T07:13:18.123Z,7.28
2023-04-22T07:15:51.000Z,8.32
2023-04-22T07:18:24.068Z,9.40
2023-04-22T07:23:22.368Z,7.85
2023-04-22T07:25:54.432Z,9.93
2023-04-22T07:28:23.963Z,7.13
2023-04-22T07:30:59.100Z,7.07
2023-04-22T07:33:33.655Z,7.85
2023-04-22T07:36:08.172Z,12.15
2023-04-22T07:38:42.932Z,10.70
2023-04-22T07:41:20.181Z,7.70
2023-04-22T07:43:52.463Z,8.70
2023-04-22T07:46:26.350Z,9.23
2023-04-22T07:48:58.756Z,7.47
2023-04-22T07:51:27.934Z,6.75
2023-04-22T07:53:59.559Z,9.45
2023-04-22T07:56:29.152Z,9.43
2023-04-22T07:59:01.209Z,9.18
2023-04-22T08:01:30.797Z,10.60
2023-04-22T08:04:00.027Z,10.18
2023-04-22T08:06:32.521Z,9.70
2023-04-22T08:09:05.430Z,8.75
2023-04-22T08:11:40.690Z,9.38
2023-04-22T08:14:12.073Z,9.00
2023-04-22T08:16:41.363Z,11.32
2023-04-22T08:19:12.694Z,9.40
2023-04-22T08:21:43.843Z,12.35
2023-04-22T08:24:16.394Z,9.45
2023-04-22T08:26:47.788Z,10.77
2023-04-22T08:29:16.651Z,9.00
2023-04-22T08:31:53.747Z,9.50
2023-04-22T08:34:47.089Z,10.00
2023-04-22T08:37:16.557Z,9.77
2023-04-22T08:39:50.663Z,8.15
2023-04-22T08:42:21.751Z,8.43
2023-04-22T08:44:51.697Z,9.85
2023-04-22T08:47:29.928Z,8.73
2023-04-22T08:50:05.868Z,8.10
2023-04-22T08:52:37.323Z,9.73
2023-04-22T08:55:13.674Z,9.25
2023-04-22T08:57:48.513Z,8.50
2023-04-22T09:00:22.634Z,13.88
2023-04-22T09:02:53.140Z,9.05
2023-04-22T09:05:25.613Z,5.68
2023-04-22T09:08:03.616Z,7.05
2023-04-22T09:10:34.266Z,5.43
2023-04-22T09:13:07.878Z,5.25
2023-04-22T09:15:40.010Z,5.85
2023-04-22T09:18:12.919Z,6.75
2023-04-22T09:20:44.423Z,5.82
2023-04-22T09:23:18.836Z,7.30
2023-04-22T09:25:51.532Z,6.72
2023-04-22T09:28:21.673Z,6.72
2023-04-22T09:30:52.972Z,8.35
2023-04-22T09:33:22.024Z,7.53
2023-04-22T09:35:51.345Z,8.05
2023-04-22T09:38:21.690Z,10.38
2023-04-22T09:40:53.363Z,11.88
2023-04-22T09:43:25.347Z,9.45
2023-04-22T09:45:57.251Z,12.35
2023-04-22T09:48:28.723Z,11.13
2023-04-22T09:51:15.323Z,10.23
2023-04-22T09:53:57.722Z,11.10
2023-04-22T09:56:53.604Z,11.90
2023-04-22T09:59:32.714Z,12.43
2023-04-22T10:02:07.439Z,14.30
2023-04-22T10:04:37.141Z,11.93
2023-04-22T10:07:09.508Z,10.73
2023-04-22T10:09:42.130Z,11.52
2023-04-22T10:12:13.256Z,11.43
2023-04-22T10:14:46.956Z,10.20
2023-04-22T10:17:22.217Z,9.35
2023-04-22T10:19:52.809Z,11.70
2023-04-22T10:22:22.138Z,8.18
2023-04-22T10:24:55.859Z,9.05
2023-04-22T10:27:30.303Z,8.70
2023-04-22T10:30:02.118Z,10.15
2023-04-22T10:32:31.531Z,10.02
2023-04-22T10:35:12.573Z,9.05
2023-04-22T10:37:46.964Z,9.70
2023-04-22T10:40:19.620Z,9.55
2023-04-22T10:42:56.418Z,9.10
2023-04-22T10:45:28.691Z,9.63
2023-04-22T10:48:05.181Z,9.38
2023-04-22T10:50:35.027Z,10.35
2023-04-22T10:53:37.901Z,10.98
2023-04-22T10:56:20.739Z,13.07
2023-04-22T10:58:50.685Z,13.85
2023-04-22T11:01:20.184Z,13.93
2023-04-22T11:03:49.406Z,15.38
2023-04-22T11:06:22.696Z,17.38
2023-04-22T11:09:11.543Z,15.77
2023-04-22T11:11:44.241Z,13.38
2023-04-22T11:14:14.364Z,17.00
2023-04-22T11:17:05.711Z,15.18
2023-04-22T11:19:35.505Z,16.52
2023-04-22T11:22:12.131Z,17.25
2023-04-22T11:24:59.673Z,15.98
2023-04-22T11:27:35.398Z,18.45
2023-04-22T11:30:16.216Z,15.10
2023-04-22T11:32:59.781Z,14.75
2023-04-22T11:35:34.795Z,15.32
2023-04-22T11:38:09.227Z,15.45
2023-04-22T11:40:46.961Z,17.02
2023-04-22T11:43:19.095Z,14.35
2023-04-22T11:45:51.811Z,18.65
2023-04-22T11:48:23.857Z,15.40
2023-04-22T11:51:12.345Z,14.30
2023-04-22T11:53:52.059Z,15.50
2023-04-22T11:56:22.890Z,16.30
2023-04-22T11:58:53.258Z,16.42
2023-04-22T12:01:25.997Z,14.88
2023-04-22T12:04:01.861Z,17.13
2023-04-22T12:06:32.832Z,15.85
2023-04-22T12:09:03.010Z,12.13
2023-04-22T12:11:39.316Z,14.45
2023-04-22T12:14:13.085Z,19.27
2023-04-22T12:16:44.268Z,15.02
2023-04-22T12:19:25.653Z,15.13
2023-04-22T12:21:57.784Z,16.33
2023-04-22T12:24:33.031Z,13.75
2023-04-22T12:27:03.990Z,14.20
2023-04-22T12:29:37.548Z,10.85
2023-04-22T12:32:10.816Z,13.63
2023-04-22T12:34:44.257Z,13.63
2023-04-22T12:37:15.989Z,12.85
2023-04-22T12:39:51.907Z,11.52
2023-04-22T12:42:29.254Z,10.75
2023-04-22T12:45:05.140Z,14.55
2023-04-22T12:47:46.241Z,15.48
2023-04-22T12:50:20.339Z,10.43
2023-04-22T12:53:06.440Z,14.65
2023-04-22T12:55:51.287Z,11.88
2023-04-22T12:58:58.082Z,13.05
2023-04-22T13:01:44.005Z,16.63
2023-04-22T13:04:26.346Z,13.18
2023-04-22T13:07:36.843Z,9.85
2023-04-22T13:10:51.221Z,13.23
2023-04-22T13:14:41.457Z,11.68
2023-04-22T13:18:49.152Z,10.40
2023-04-22T13:21:23.942Z,12.90
2023-04-22T13:23:54.334Z,9.05
2023-04-22T13:26:24.003Z,10.90
2023-04-22T13:28:56.988Z,9.35
2023-04-22T13:31:31.798Z,11.80
2023-04-22T13:34:05.327Z,10.80
2023-04-22T13:36:38.884Z,12.95
2023-04-22T13:39:14.045Z,9.93
2023-04-22T13:41:46.277Z,12.43
2023-04-22T13:44:17.624Z,15.40
2023-04-22T13:46:56.311Z,13.77
2023-04-22T13:49:29.649Z,14.35
2023-04-22T13:52:01.971Z,13.35
2023-04-22T13:57:11.084Z,11.50
2023-04-22T13:59:42.973Z,12.75
2023-04-22T14:02:15.887Z,11.02
2023-04-22T14:04:48.081Z,11.90
2023-04-22T14:07:22.008Z,9.50
2023-04-22T14:09:54.971Z,9.20
2023-04-22T14:12:28.416Z,9.70
2023-04-22T14:17:31.196Z,9.55
2023-04-22T14:20:06.409Z,12.80
2023-04-22T14:22:41.868Z,13.00
2023-04-22T14:25:14.121Z,14.25
2023-04-22T14:27:48.391Z,10.85
2023-04-22T14:30:22.404Z,11.80
2023-04-22T14:32:55.705Z,9.15
2023-04-22T14:35:24.995Z,9.13
2023-04-22T14:37:56.356Z,9.23
2023-04-22T14:41:09.230Z,10.30
2023-04-22T14:44:23.000Z,7.28
2023-04-22T14:46:53.175Z,11.82
2023-04-22T14:49:25.452Z,11.95
2023-04-22T14:51:59.016Z,10.00
2023-04-22T14:56:46.888Z,9.02
2023-04-22T14:59:06.964Z,8.88
2023-04-22T15:01:37.840Z,8.75
2023-04-22T15:04:08.621Z,9.90
2023-04-22T15:06:40.118Z,8.60
2023-04-22T15:09:13.372Z,9.82
2023-04-22T15:11:44.488Z,6.25
2023-04-22T15:14:14.149Z,9.80
2023-04-22T15:16:47.884Z,11.48
2023-04-22T15:19:17.382Z,10.50
2023-04-22T15:21:47.325Z,6.30
2023-04-22T15:24:20.409Z,10.63
2023-04-22T15:26:55.162Z,6.68
2023-04-22T15:29:28.875Z,7.28
2023-04-22T15:32:00.769Z,10.88
2023-04-22T15:34:32.505Z,8.20
2023-04-22T15:37:05.708Z,7.93
2023-04-22T15:39:34.782Z,8.05
2023-04-22T15:42:08.283Z,10.10
2023-04-22T15:44:39.557Z,9.18
2023-04-22T15:47:10.163Z,10.40
2023-04-22T15:49:44.847Z,7.90
2023-04-22T15:52:13.773Z,7.90
2023-04-22T15:54:45.015Z,10.50
2023-04-22T15:57:17.576Z,8.35
2023-04-22T16:00:02.923Z,8.77
2023-04-22T16:02:55.678Z,8.75
2023-04-22T16:05:26.142Z,8.35
2023-04-22T16:07:59.006Z,10.30
2023-04-22T16:10:30.374Z,5.85
2023-04-22T16:13:01.538Z,8.18
2023-04-22T16:15:30.843Z,7.93
2023-04-22T16:18:05.153Z,10.10
2023-04-22T16:20:37.000Z,7.80
2023-04-22T16:23:07.115Z,9.02
2023-04-22T16:25:38.923Z,8.82
2023-04-22T16:28:08.054Z,9.77
2023-04-22T16:30:39.246Z,12.57
2023-04-22T16:33:10.933Z,11.52
2023-04-22T16:35:43.086Z,12.15
2023-04-22T16:38:13.193Z,9.57
2023-04-22T16:40:44.938Z,14.00
2023-04-22T16:43:16.511Z,15.85
2023-04-22T16:45:45.464Z,8.38
2023-04-22T16:48:19.859Z,12.63
2023-04-22T16:50:54.993Z,18.35
2023-04-22T16:53:26.463Z,10.88
2023-04-22T16:55:58.109Z,9.40
2023-04-22T16:58:33.546Z,8.75
2023-04-22T17:01:03.396Z,10.20
2023-04-22T17:03:38.859Z,10.15
2023-04-22T17:08:40.447Z,9.32
2023-04-22T17:11:12.420Z,7.45
2023-04-22T17:13:44.226Z,10.60
2023-04-22T17:16:13.105Z,11.55
2023-04-22T17:18:47.634Z,10.32
2023-04-22T17:21:26.714Z,8.98
2023-04-22T17:23:56.613Z,9.93
2023-04-22T17:26:31.501Z,12.85
2023-04-22T17:29:00.693Z,6.90
2023-04-22T17:31:34.008Z,7.30
2023-04-22T17:34:04.078Z,8.50
2023-04-22T17:36:36.358Z,10.48
2023-04-22T17:39:08.669Z,8.65
2023-04-22T17:41:44.902Z,7.55
2023-04-22T17:50:10.481Z,11.50
2023-04-22T17:52:40.253Z,9.50
2023-04-22T17:55:55.626Z,13.02
2023-04-22T17:58:29.838Z,10.98
2023-04-22T18:00:59.265Z,11.35
2023-04-22T18:03:33.871Z,9.60
2023-04-22T18:06:13.312Z,9.93
2023-04-22T18:08:46.668Z,8.32
2023-04-22T18:11:19.924Z,11.77
2023-04-22T18:13:53.080Z,9.77
2023-04-22T18:16:25.018Z,10.88
2023-04-22T18:18:54.093Z,11.68
2023-04-22T18:21:23.558Z,8.52
2023-04-22T18:23:56.287Z,15.73
2023-04-22T18:26:29.447Z,12.88
2023-04-22T18:29:03.568Z,10.70
2023-04-22T18:31:36.774Z,10.52
2023-04-22T18:34:14.076Z,7.63
2023-04-22T18:39:17.143Z,10.02
2023-04-22T18:41:49.593Z,9.38
2023-04-22T18:44:21.877Z,9.50
2023-04-22T18:46:56.873Z,8.52
2023-04-22T18:49:34.207Z,7.78
2023-04-22T18:52:08.810Z,10.00
2023-04-22T18:54:41.724Z,9.20
2023-04-22T18:57:12.521Z,8.70
2023-04-22T18:59:45.326Z,9.48
2023-04-22T19:02:15.928Z,8.93
2023-04-22T19:04:50.966Z,11.20
2023-04-22T19:07:23.167Z,12.50
2023-04-22T19:12:24.517Z,11.50
2023-04-22T19:14:54.726Z,11.23
2023-04-22T19:17:23.962Z,11.25
2023-04-22T19:19:55.805Z,10.45
2023-04-22T19:22:25.001Z,12.02
2023-04-22T19:24:59.262Z,10.38
2023-04-22T19:27:28.336Z,10.20
2023-04-22T19:30:00.421Z,7.90
2023-04-22T19:32:30.996Z,11.65
2023-04-22T19:35:04.517Z,14.15
2023-04-22T19:37:37.884Z,10.95
2023-04-22T19:40:18.468Z,11.10
2023-04-22T19:42:54.414Z,10.52
2023-04-22T19:45:25.716Z,10.30
2023-04-22T19:47:54.942Z,8.05
2023-04-22T19:50:24.963Z,8.40
2023-04-22T19:53:14.446Z,12.70
2023-04-22T19:55:49.965Z,11.52
2023-04-22T19:58:22.907Z,10.27
2023-04-22T20:00:55.029Z,9.30
2023-04-22T20:03:25.715Z,10.60
2023-04-22T20:05:58.749Z,9.98
2023-04-22T20:08:32.456Z,8.20
2023-04-22T20:11:03.078Z,12.00
2023-04-22T20:13:36.107Z,9.55
2023-04-22T20:16:11.058Z,10.57
2023-04-22T20:18:43.466Z,9.07
2023-04-22T20:21:15.872Z,9.10
2023-04-22T20:23:49.016Z,9.88
2023-04-22T20:26:24.834Z,8.60
2023-04-22T20:28:54.656Z,10.05
2023-04-22T20:31:32.745Z,13.10
2023-04-22T20:34:05.539Z,10.52
2023-04-22T20:36:41.380Z,14.77
2023-04-22T20:39:15.149Z,9.95
2023-04-22T20:41:44.862Z,10.07
2023-04-22T20:44:16.927Z,9.40
2023-04-22T20:46:59.893Z,10.88
2023-04-22T20:49:31.308Z,10.90
2023-04-22T20:52:00.063Z,9.98
2023-04-22T20:54:29.583Z,11.95
2023-04-22T20:56:59.364Z,12.88
2023-04-22T20:59:37.123Z,10.10
2023-04-22T21:02:10.003Z,8.77
2023-04-22T21:04:43.583Z,9.10
2023-04-22T21:07:14.785Z,10.65
2023-04-22T21:09:48.247Z,13.20
2023-04-22T21:12:20.313Z,10.15
2023-04-22T21:14:52.054Z,11.15
2023-04-22T21:17:35.938Z,13.65
2023-04-22T21:20:09.900Z,10.52
2023-04-22T21:22:47.016Z,13.57
2023-04-22T21:25:24.938Z,7.95
2023-04-22T21:27:59.279Z,12.10
2023-04-22T21:30:28.712Z,8.63
2023-04-22T21:32:59.936Z,8.32
2023-04-22T21:35:31.866Z,11.20
2023-04-22T21:38:01.759Z,13.98
2023-04-22T21:40:31.398Z,11.10
2023-04-22T21:43:05.630Z,8.68
2023-04-22T21:45:40.040Z,11.32
2023-04-22T21:48:08.852Z,11.63
2023-04-22T21:50:38.131Z,12.63
2023-04-22T21:53:10.326Z,7.90
2023-04-22T21:55:44.647Z,10.98
2023-04-22T21:58:16.072Z,10.70
2023-04-22T22:00:45.480Z,10.40
2023-04-22T22:03:15.697Z,13.10
2023-04-22T22:05:47.317Z,11.85
2023-04-22T22:08:22.774Z,12.68
2023-04-22T22:10:58.254Z,10.77
2023-04-22T22:13:49.793Z,11.75
2023-04-22T22:16:21.169Z,10.20
2023-04-22T22:18:58.794Z,11.25
2023-04-22T22:21:27.994Z,10.38
2023-04-22T22:23:59.565Z,13.90
2023-04-22T22:26:29.691Z,8.73
2023-04-22T22:28:59.035Z,9.10
2023-04-22T22:31:30.620Z,9.43
2023-04-22T22:34:00.060Z,9.10
2023-04-22T22:36:31.869Z,12.00
2023-04-22T22:39:01.050Z,12.48
2023-04-22T22:41:30.338Z,9.52
2023-04-22T22:44:01.849Z,11.25
2023-04-22T22:46:33.876Z,9.18
2023-04-22T22:49:05.079Z,12.90
2023-04-22T22:51:37.568Z,11.10
2023-04-22T22:54:09.386Z,11.18
2023-04-22T22:56:43.003Z,8.55
2023-04-22T22:59:15.140Z,11.90
2023-04-22T23:01:47.680Z,16.50
2023-04-22T23:06:54.621Z,11.77
2023-04-22T23:11:58.884Z,12.48
2023-04-22T23:14:41.304Z,12.25
2023-04-22T23:17:10.461Z,15.60
2023-04-22T23:19:43.050Z,13.43
2023-04-22T23:22:13.511Z,11.52
2023-04-22T23:24:43.022Z,12.10
2023-04-22T23:27:17.817Z,13.65
2023-04-22T23:29:50.074Z,11.02
2023-04-22T23:32:21.288Z,12.32
2023-04-22T23:35:00.983Z,9.93
2023-04-22T23:37:30.334Z,13.65
2023-04-22T23:40:01.891Z,12.15
2023-04-22T23:42:37.083Z,14.68
2023-04-22T23:45:44.104Z,14.93
2023-04-22T23:48:15.533Z,14.43
2023-04-22T23:50:45.964Z,10.70
2023-04-22T23:53:17.193Z,15.57
2023-04-22T23:55:49.272Z,13.52
2023-04-22T23:58:21.516Z,11.20
